Time;durP1;ratioP1;P1;durP2;ratioP2;P2;SDS_P1;SDS_P2;PMS_P1;PMS_P2;Temp;Humidity;BMP_temperature;BMP_pressure;BME280_temperature;BME280_humidity;BME280_pressure;Samples;Min_cycle;Max_cycle;Signal;HPM_P1;HPM_P2
2024/01/14 00:00:47;;;;;;;34.58;16.40;;;;;;;-2.16;73.63;96706.91;5074711;28;20087;-77
2024/01/14 00:03:14;;;;;;;40.35;17.67;;;;;;;-2.22;73.30;96695.31;5074228;28;20415;-77
2024/01/14 00:05:42;;;;;;;40.90;17.10;;;;;;;-2.26;73.51;96701.56;5074438;28;20052;-77
2024/01/14 00:08:11;;;;;;;44.28;17.80;;;;;;;-2.26;73.69;96704.09;5073619;28;20050;-77
2024/01/14 00:10:38;;;;;;;38.55;16.48;;;;;;;-2.28;73.66;96688.06;5074326;28;20142;-77
2024/01/14 00:13:06;;;;;;;40.47;18.00;;;;;;;-2.27;73.68;96682.03;5085547;28;20048;-76
2024/01/14 00:15:33;;;;;;;43.00;16.88;;;;;;;-2.28;73.57;96685.50;5074908;28;20423;-77
2024/01/14 00:18:01;;;;;;;47.28;18.67;;;;;;;-2.26;73.82;96678.56;5074093;28;20048;-76
2024/01/14 00:20:29;;;;;;;47.85;19.38;;;;;;;-2.22;73.98;96674.06;5074005;28;20165;-77
2024/01/14 00:22:56;;;;;;;41.25;18.20;;;;;;;-2.22;74.03;96668.97;5073778;28;20044;-77
2024/01/14 00:25:25;;;;;;;41.38;17.90;;;;;;;-2.23;73.63;96664.75;5073946;28;20106;-77
2024/01/14 00:27:53;;;;;;;38.97;16.38;;;;;;;-2.22;74.21;96668.97;5073957;28;20092;-77
2024/01/14 00:30:20;;;;;;;42.95;18.40;;;;;;;-2.17;74.21;96657.50;5073857;28;20485;-77
2024/01/14 00:32:48;;;;;;;43.45;18.63;;;;;;;-2.13;74.15;96653.81;5073757;28;20048;-77
2024/01/14 00:35:16;;;;;;;37.58;17.27;;;;;;;-2.10;73.74;96650.25;5073931;28;20094;-76
2024/01/14 00:37:43;;;;;;;44.90;18.90;;;;;;;-2.12;73.46;96645.25;5073931;28;20136;-77
2024/01/14 00:40:11;;;;;;;45.15;19.40;;;;;;;-2.14;73.53;96641.97;5070298;22;20140;-79
2024/01/14 00:42:40;;;;;;;39.80;18.25;;;;;;;-2.18;72.85;96644.84;5032763;28;20056;-78
2024/01/14 00:45:08;;;;;;;41.78;19.20;;;;;;;-2.24;73.16;96635.03;5033495;28;20073;-82
2024/01/14 00:47:36;;;;;;;47.67;19.73;;;;;;;-2.22;73.49;96639.09;5033656;28;20107;-80
2024/01/14 00:50:04;;;;;;;41.03;18.67;;;;;;;-2.18;73.34;96634.63;5033415;28;20394;-79
2024/01/14 00:52:32;;;;;;;41.30;17.83;;;;;;;-2.19;72.94;96632.97;5033007;28;20501;-78
2024/01/14 00:55:00;;;;;;;42.13;18.50;;;;;;;-2.22;73.14;96618.66;5033435;28;20049;-78
2024/01/14 00:57:27;;;;;;;39.70;18.13;;;;;;;-2.21;73.22;96615.19;5033117;28;20111;-78
2024/01/14 00:59:56;;;;;;;33.50;16.73;;;;;;;-2.23;73.10;96622.16;5033266;28;20077;-78
2024/01/14 01:02:24;;;;;;;36.35;16.05;;;;;;;-2.25;73.31;96616.34;5033164;28;20487;-81
2024/01/14 01:04:51;;;;;;;36.05;16.52;;;;;;;-2.28;72.65;96613.97;5033346;28;20080;-78
2024/01/14 01:07:20;;;;;;;33.90;16.15;;;;;;;-2.31;72.99;96619.28;5033223;28;20468;-77
2024/01/14 01:09:47;;;;;;;39.92;16.23;;;;;;;-2.32;72.84;96607.41;5032860;28;20497;-78
2024/01/14 01:12:15;;;;;;;36.42;15.73;;;;;;;-2.36;72.18;96613.66;5032737;28;20128;-77
2024/01/14 01:14:43;;;;;;;36.80;15.50;;;;;;;-2.41;72.83;96608.03;5033048;28;20057;-78
2024/01/14 01:17:12;;;;;;;41.42;17.08;;;;;;;-2.39;73.19;96611.31;5033067;28;20112;-78
2024/01/14 01:19:40;;;;;;;34.50;14.80;;;;;;;-2.37;73.00;96607.72;5031596;28;20513;-77
2024/01/14 01:22:07;;;;;;;33.45;14.00;;;;;;;-2.36;72.91;96611.09;5032787;28;20077;-76
2024/01/14 01:24:37;;;;;;;37.35;15.57;;;;;;;-2.34;72.55;96604.13;5032705;28;20132;-78
2024/01/14 01:27:05;;;;;;;35.70;15.52;;;;;;;-2.34;72.19;96599.03;5032789;28;20045;-78
2024/01/14 01:29:33;;;;;;;34.88;15.10;;;;;;;-2.36;71.82;96593.22;5032651;28;20132;-79
2024/01/14 01:32:01;;;;;;;31.08;14.52;;;;;;;-2.39;72.17;96585.75;5032632;28;20059;-77
2024/01/14 01:34:36;;;;;;;35.03;14.90;;;;;;;-2.38;72.51;96592.50;5032844;28;20477;-79
2024/01/14 01:37:05;;;;;;;34.25;14.95;;;;;;;-2.37;73.11;96591.59;5032466;28;20049;-80
2024/01/14 01:39:32;;;;;;;26.95;13.48;;;;;;;-2.34;72.48;96591.38;5032489;28;20049;-78
2024/01/14 01:42:00;;;;;;;29.45;15.60;;;;;;;-2.36;72.04;96585.53;5032534;28;20428;-78
2024/01/14 01:44:28;;;;;;;30.38;13.10;;;;;;;-2.42;72.22;96586.78;5032516;28;20057;-78
2024/01/14 01:46:57;;;;;;;32.72;16.33;;;;;;;-2.44;72.24;96582.69;5032425;28;20287;-78
2024/01/14 01:49:24;;;;;;;32.78;15.40;;;;;;;-2.46;72.02;96575.13;5032289;28;20128;-78
2024/01/14 01:51:54;;;;;;;33.50;15.55;;;;;;;-2.53;72.11;96569.63;5032224;28;20064;-77
2024/01/14 01:54:25;;;;;;;30.50;14.32;;;;;;;-2.52;72.75;96566.13;5032560;28;20045;-82
2024/01/14 01:56:54;;;;;;;32.60;15.60;;;;;;;-2.46;72.80;96566.66;5032425;28;20144;-78
2024/01/14 01:59:22;;;;;;;34.42;16.08;;;;;;;-2.44;72.38;96564.81;5032324;28;20045;-77
2024/01/14 02:01:50;;;;;;;32.65;15.57;;;;;;;-2.48;72.42;96556.53;5032059;28;20045;-83
2024/01/14 02:04:18;;;;;;;31.42;16.25;;;;;;;-2.46;72.24;96554.69;5032042;28;20163;-78
2024/01/14 02:06:46;;;;;;;35.42;16.40;;;;;;;-2.45;72.16;96558.06;5032156;28;20087;-79
2024/01/14 02:09:15;;;;;;;36.53;15.05;;;;;;;-2.51;71.98;96561.84;5032031;28;20420;-78
2024/01/14 02:11:43;;;;;;;35.13;16.92;;;;;;;-2.54;72.22;96552.63;5031920;28;20095;-77
2024/01/14 02:14:10;;;;;;;32.38;16.15;;;;;;;-2.54;72.86;96552.63;5031787;28;20493;-77
2024/01/14 02:16:38;;;;;;;33.53;16.67;;;;;;;-2.51;73.14;96551.63;5031946;28;20080;-78
2024/01/14 02:19:05;;;;;;;35.80;15.25;;;;;;;-2.52;72.84;96540.59;5032090;28;20053;-78
2024/01/14 02:21:37;;;;;;;31.23;14.00;;;;;;;-2.51;72.58;96541.44;5031611;28;20064;-78
2024/01/14 02:24:17;;;;;;;34.42;14.98;;;;;;;-2.51;72.54;96538.88;5031728;28;20565;-77
2024/01/14 02:26:44;;;;;;;31.58;14.02;;;;;;;-2.50;72.31;96520.88;5031791;28;20563;-77
2024/01/14 02:29:13;;;;;;;32.25;15.95;;;;;;;-2.46;72.66;96523.22;5031588;28;20053;-78
2024/01/14 02:31:41;;;;;;;30.40;14.80;;;;;;;-2.43;72.55;96518.72;5033963;28;20049;-77
2024/01/14 02:34:08;;;;;;;31.20;15.70;;;;;;;-2.43;72.44;96516.16;5035808;28;20151;-77
2024/01/14 02:36:36;;;;;;;29.00;13.65;;;;;;;-2.47;71.97;96509.66;5035744;28;20053;-78
2024/01/14 02:39:04;;;;;;;30.45;14.48;;;;;;;-2.50;72.43;96508.09;5035744;28;20141;-79
2024/01/14 02:41:33;;;;;;;33.38;15.80;;;;;;;-2.46;72.75;96502.81;5035862;28;20277;-76
2024/01/14 02:44:01;;;;;;;29.60;15.05;;;;;;;-2.44;73.03;96503.53;5035978;28;20103;-77
2024/01/14 02:46:29;;;;;;;32.47;15.90;;;;;;;-2.45;72.40;96504.41;5037053;28;20136;-77
2024/01/14 02:48:57;;;;;;;35.05;14.30;;;;;;;-2.50;72.72;96508.09;5035715;28;20080;-79
2024/01/14 02:51:25;;;;;;;30.55;16.08;;;;;;;-2.49;72.34;96502.09;5035439;28;20497;-79
2024/01/14 02:53:52;;;;;;;28.42;14.85;;;;;;;-2.49;72.69;96493.63;5035270;28;20151;-77
2024/01/14 02:56:20;;;;;;;31.65;15.00;;;;;;;-2.43;72.61;96493.16;5035754;28;20050;-78
2024/01/14 02:58:49;;;;;;;36.72;15.45;;;;;;;-2.40;72.54;96494.72;5035706;28;20053;-78
2024/01/14 03:01:16;;;;;;;35.15;16.58;;;;;;;-2.38;72.77;96495.44;5035517;28;20154;-81
2024/01/14 03:03:44;;;;;;;35.10;16.98;;;;;;;-2.35;72.87;96495.22;5035345;28;20059;-78
2024/01/14 03:06:12;;;;;;;35.45;15.80;;;;;;;-2.34;72.92;96495.13;5035353;28;20049;-78
2024/01/14 03:08:40;;;;;;;33.25;16.02;;;;;;;-2.30;72.93;96499.13;5035326;28;20053;-77
2024/01/14 03:11:07;;;;;;;33.15;15.73;;;;;;;-2.26;72.48;96504.00;5035147;28;20073;-78
2024/01/14 03:13:35;;;;;;;36.00;16.00;;;;;;;-2.29;72.47;96505.03;5035043;28;20072;-77
2024/01/14 03:16:04;;;;;;;35.30;15.95;;;;;;;-2.30;72.65;96503.38;5035357;28;20084;-79
2024/01/14 03:18:32;;;;;;;33.38;14.77;;;;;;;-2.33;72.30;96504.41;5034993;28;20076;-78
2024/01/14 03:21:00;;;;;;;34.20;16.63;;;;;;;-2.36;72.06;96494.41;5035081;28;20045;-79
2024/01/14 03:23:27;;;;;;;35.15;16.17;;;;;;;-2.38;72.20;96503.09;5034543;28;20053;-77
2024/01/14 03:25:55;;;;;;;41.30;17.63;;;;;;;-2.38;72.60;96493.69;5035111;28;20059;-77
2024/01/14 03:28:22;;;;;;;34.13;16.00;;;;;;;-2.36;71.74;96491.03;5034811;28;20516;-78
2024/01/14 03:30:50;;;;;;;34.47;15.73;;;;;;;-2.38;71.95;96486.03;5034704;28;20045;-80
2024/01/14 03:33:19;;;;;;;37.60;16.58;;;;;;;-2.38;72.23;96482.66;5034557;28;20088;-78
2024/01/14 03:35:46;;;;;;;31.90;15.25;;;;;;;-2.37;72.31;96485.09;5034897;28;20046;-77
2024/01/14 03:38:14;;;;;;;34.90;15.05;;;;;;;-2.37;72.69;96494.50;5034857;28;20049;-77
2024/01/14 03:40:42;;;;;;;33.70;16.13;;;;;;;-2.36;72.43;96488.47;5034731;28;20509;-80
2024/01/14 03:43:09;;;;;;;34.67;15.77;;;;;;;-2.38;72.60;96492.88;5033408;28;20419;-77
2024/01/14 03:45:37;;;;;;;35.72;15.38;;;;;;;-2.37;72.62;96486.84;5034476;28;20046;-76
2024/01/14 03:48:05;;;;;;;41.47;17.13;;;;;;;-2.34;72.39;96487.47;5034627;28;20567;-78
2024/01/14 03:50:34;;;;;;;30.40;14.48;;;;;;;-2.35;72.46;96497.78;5034280;28;20214;-77
2024/01/14 03:53:02;;;;;;;34.22;15.73;;;;;;;-2.33;72.39;96501.84;5034550;28;20049;-78
2024/01/14 03:55:29;;;;;;;37.78;18.20;;;;;;;-2.28;72.50;96496.44;5034591;28;20073;-77
2024/01/14 03:57:58;;;;;;;37.03;15.38;;;;;;;-2.29;71.98;96498.19;5034506;28;20055;-78
2024/01/14 04:00:25;;;;;;;36.65;16.05;;;;;;;-2.36;72.00;96493.56;5034202;28;20088;-80
2024/01/14 04:02:53;;;;;;;33.20;14.02;;;;;;;-2.37;72.43;96486.84;5034026;28;20095;-78
2024/01/14 04:05:20;;;;;;;37.22;16.60;;;;;;;-2.39;72.42;96486.13;5034427;28;20049;-77
2024/01/14 04:07:50;;;;;;;34.30;16.10;;;;;;;-2.39;71.75;96493.78;5034590;28;20049;-80
2024/01/14 04:10:17;;;;;;;35.72;16.25;;;;;;;-2.39;71.61;96493.78;5034023;28;20127;-79
2024/01/14 04:12:45;;;;;;;33.78;15.73;;;;;;;-2.40;71.81;96502.41;5034025;28;20056;-79
2024/01/14 04:15:13;;;;;;;35.90;18.13;;;;;;;-2.40;71.49;96502.41;5034132;28;20568;-79
2024/01/14 04:17:40;;;;;;;32.63;13.65;;;;;;;-2.35;71.71;96497.78;5033880;28;20103;-80
2024/01/14 04:20:09;;;;;;;33.50;14.98;;;;;;;-2.34;71.53;96502.78;5034048;28;20053;-80
2024/01/14 04:22:36;;;;;;;36.47;15.98;;;;;;;-2.33;71.70;96493.38;5033762;28;20240;-80
2024/01/14 04:25:06;;;;;;;36.25;15.85;;;;;;;-2.38;71.49;96498.81;5034107;28;20053;-80
2024/01/14 04:27:34;;;;;;;38.45;17.08;;;;;;;-2.41;71.71;96501.56;5034037;28;20494;-77
2024/01/14 04:30:03;;;;;;;36.72;16.45;;;;;;;-2.40;71.43;96499.84;5034129;28;20141;-79
2024/01/14 04:32:31;;;;;;;38.42;17.05;;;;;;;-2.43;71.51;96490.63;5033658;28;20095;-80
2024/01/14 04:34:59;;;;;;;36.53;15.95;;;;;;;-2.42;71.97;96491.47;5034017;28;20053;-84
2024/01/14 04:37:27;;;;;;;38.75;17.60;;;;;;;-2.35;72.33;96490.13;5033801;28;20057;-79
2024/01/14 04:39:55;;;;;;;35.45;16.13;;;;;;;-2.32;72.14;96492.44;5033674;28;20420;-76
2024/01/14 04:42:24;;;;;;;40.33;17.55;;;;;;;-2.32;72.20;96487.34;5033082;28;20045;-77
2024/01/14 04:44:51;;;;;;;41.08;19.48;;;;;;;-2.30;72.09;96488.06;5033564;28;20045;-77
2024/01/14 04:47:19;;;;;;;42.30;19.88;;;;;;;-2.29;72.21;96494.81;5033477;28;20072;-78
2024/01/14 04:49:46;;;;;;;44.17;19.05;;;;;;;-2.26;72.29;96504.00;5033551;28;20144;-77
2024/01/14 04:52:14;;;;;;;43.25;20.05;;;;;;;-2.26;71.99;96492.03;5033375;28;20056;-77
2024/01/14 04:54:41;;;;;;;42.70;17.90;;;;;;;-2.27;71.77;96492.97;5033027;28;20096;-77
2024/01/14 04:57:09;;;;;;;41.90;18.85;;;;;;;-2.30;71.47;96503.38;5033134;28;20052;-77
2024/01/14 04:59:38;;;;;;;38.85;16.17;;;;;;;-2.32;71.12;96500.94;5033239;28;20107;-77
2024/01/14 05:02:07;;;;;;;41.00;18.83;;;;;;;-2.37;71.12;96499.63;5033420;28;20045;-79
2024/01/14 05:04:34;;;;;;;42.38;16.75;;;;;;;-2.44;71.48;96498.41;5033521;28;20141;-80
2024/01/14 05:07:02;;;;;;;42.30;17.65;;;;;;;-2.49;71.91;96494.41;5033219;28;20065;-78
2024/01/14 05:09:30;;;;;;;38.58;17.48;;;;;;;-2.49;72.35;96499.53;5032854;28;20187;-80
2024/01/14 05:11:57;;;;;;;42.95;19.00;;;;;;;-2.47;72.01;96499.44;5032890;28;20144;-78
2024/01/14 05:14:25;;;;;;;43.03;19.23;;;;;;;-2.50;72.09;96504.72;5032598;28;20060;-76
2024/01/14 05:16:54;;;;;;;47.17;18.98;;;;;;;-2.47;72.31;96501.16;5032730;28;20511;-76
2024/01/14 05:19:22;;;;;;;42.80;18.90;;;;;;;-2.44;72.37;96498.41;5032755;28;20045;-78
2024/01/14 05:21:52;;;;;;;43.03;17.63;;;;;;;-2.41;71.98;96504.09;5032971;28;20077;-77
2024/01/14 05:24:19;;;;;;;39.47;18.23;;;;;;;-2.42;71.97;96499.13;5033176;28;20091;-77
2024/01/14 05:26:47;;;;;;;46.15;18.92;;;;;;;-2.43;72.06;96500.03;5033826;28;20049;-77
2024/01/14 05:29:15;;;;;;;46.78;18.80;;;;;;;-2.42;72.34;96491.47;5035720;28;20077;-79
2024/01/14 05:31:41;;;;;;;45.20;19.38;;;;;;;-2.42;72.04;96491.47;5034194;28;20045;-78
2024/01/14 05:34:10;;;;;;;46.83;19.85;;;;;;;-2.44;72.32;96477.97;5034226;28;20073;-78
2024/01/14 05:36:38;;;;;;;45.33;20.70;;;;;;;-2.42;72.65;96481.25;5033157;28;20096;-79
2024/01/14 05:39:05;;;;;;;44.42;19.58;;;;;;;-2.38;72.05;96469.91;5032824;28;20086;-78
2024/01/14 05:41:33;;;;;;;45.00;19.60;;;;;;;-2.38;72.24;96469.91;5032887;28;20135;-77
2024/01/14 05:44:00;;;;;;;46.55;19.63;;;;;;;-2.38;72.44;96469.91;5032608;28;20096;-78
2024/01/14 05:46:28;;;;;;;47.45;20.90;;;;;;;-2.37;71.97;96480.00;5032446;28;20092;-78
2024/01/14 05:48:55;;;;;;;43.08;20.73;;;;;;;-2.38;71.64;96473.25;5032322;28;20056;-78
2024/01/14 05:51:24;;;;;;;47.13;20.02;;;;;;;-2.41;71.71;96470.09;5032032;28;20045;-78
2024/01/14 05:53:52;;;;;;;41.33;20.75;;;;;;;-2.42;72.11;96459.06;5032419;28;20045;-76
2024/01/14 05:56:29;;;;;;;43.95;19.20;;;;;;;-2.38;72.39;96472.44;5032363;28;20077;-78
2024/01/14 05:58:57;;;;;;;47.38;20.08;;;;;;;-2.34;72.57;96471.28;5032395;28;20045;-79
2024/01/14 06:01:24;;;;;;;40.90;18.33;;;;;;;-2.32;72.60;96474.56;5032170;28;20042;-77
2024/01/14 06:03:52;;;;;;;44.28;18.02;;;;;;;-2.31;72.59;96471.91;5031727;28;20084;-78
2024/01/14 06:06:20;;;;;;;47.72;19.80;;;;;;;-2.28;72.56;96473.44;5031649;28;20136;-78
2024/01/14 06:08:49;;;;;;;40.55;17.33;;;;;;;-2.24;72.62;96461.28;5032133;28;20157;-77
2024/01/14 06:11:17;;;;;;;41.67;18.88;;;;;;;-2.21;72.27;96461.06;5032067;28;20045;-77
2024/01/14 06:13:45;;;;;;;48.10;19.25;;;;;;;-2.21;72.48;96458.50;5031769;28;20045;-77
2024/01/14 06:16:12;;;;;;;44.35;19.35;;;;;;;-2.23;72.52;96455.22;5031988;28;20059;-79
2024/01/14 06:18:41;;;;;;;45.97;18.23;;;;;;;-2.23;72.30;96456.06;5031729;28;20049;-78
2024/01/14 06:21:08;;;;;;;43.08;18.63;;;;;;;-2.23;71.86;96452.69;5031782;28;20060;-78
2024/01/14 06:23:36;;;;;;;49.20;20.20;;;;;;;-2.23;72.22;96447.56;5031728;28;20046;-78
2024/01/14 06:26:05;;;;;;;49.53;20.17;;;;;;;-2.25;72.13;96445.13;5031990;28;20139;-78
2024/01/14 06:28:32;;;;;;;40.60;19.23;;;;;;;-2.23;72.01;96440.75;5031872;28;20049;-78
2024/01/14 06:31:00;;;;;;;49.60;21.08;;;;;;;-2.26;71.77;96448.59;5031550;28;20132;-77
2024/01/14 06:33:28;;;;;;;46.67;19.05;;;;;;;-2.29;71.90;96443.72;5031746;28;20080;-78
2024/01/14 06:35:56;;;;;;;48.88;18.17;;;;;;;-2.27;71.88;96449.53;5031668;28;20141;-78
2024/01/14 06:38:23;;;;;;;44.58;17.10;;;;;;;-2.25;71.94;96454.50;5031917;28;20061;-77
2024/01/14 06:40:51;;;;;;;42.95;18.25;;;;;;;-2.26;72.15;96451.16;5054899;22;20132;-84
2024/01/14 06:43:37;;;;;;;42.22;18.00;;;;;;;-2.25;72.53;96440.03;5035696;28;20109;-83
2024/01/14 06:46:05;;;;;;;40.45;18.20;;;;;;;-2.23;72.21;96450.97;5036385;28;20045;-82
2024/01/14 06:48:33;;;;;;;43.88;17.80;;;;;;;-2.19;72.57;96446.44;5036305;28;20049;-82
2024/01/14 06:51:01;;;;;;;39.13;17.65;;;;;;;-2.16;72.41;96441.94;5035907;28;20046;-83
2024/01/14 06:53:29;;;;;;;44.67;18.15;;;;;;;-2.20;71.84;96432.03;5036224;28;20045;-81
2024/01/14 06:55:57;;;;;;;46.90;19.95;;;;;;;-2.19;72.47;96423.44;5036908;28;20049;-83
2024/01/14 06:58:24;;;;;;;40.40;17.70;;;;;;;-2.25;72.41;96414.47;5037071;28;20133;-82
2024/01/14 07:00:53;;;;;;;39.65;17.95;;;;;;;-2.26;72.88;96420.50;5038050;28;20072;-81
2024/01/14 07:03:21;;;;;;;45.20;17.83;;;;;;;-2.26;72.24;96405.16;5036967;28;20156;-83
2024/01/14 07:05:49;;;;;;;41.70;17.02;;;;;;;-2.29;72.33;96411.31;5035631;28;20073;-83
2024/01/14 07:08:16;;;;;;;40.78;18.33;;;;;;;-2.29;72.02;96418.16;5035221;28;20072;-82
2024/01/14 07:10:44;;;;;;;39.05;18.75;;;;;;;-2.31;72.44;96414.91;5035274;28;20045;-80
2024/01/14 07:13:12;;;;;;;39.80;17.23;;;;;;;-2.32;72.63;96414.09;5035215;28;20045;-81
2024/01/14 07:15:40;;;;;;;43.65;19.08;;;;;;;-2.28;72.52;96404.44;5036447;28;20073;-82
2024/01/14 07:18:09;;;;;;;44.60;19.75;;;;;;;-2.20;73.15;96404.75;5038891;28;20049;-81
2024/01/14 07:20:42;;;;;;;46.90;17.75;;;;;;;-2.12;73.04;96399.91;5047767;28;20033;-81
2024/01/14 07:23:09;;;;;;;49.03;20.13;;;;;;;-2.06;72.78;96393.53;5058044;28;20025;-82
2024/01/14 07:25:57;;;;;;;40.65;16.90;;;;;;;-1.96;72.96;96393.72;5057536;28;20056;-83
2024/01/14 07:28:24;;;;;;;46.70;19.70;;;;;;;-1.91;72.85;96386.53;5057576;28;20045;-82
2024/01/14 07:30:52;;;;;;;40.95;17.52;;;;;;;-1.96;72.14;96384.28;5058076;28;20071;-82
2024/01/14 07:33:21;;;;;;;37.88;17.67;;;;;;;-2.10;71.50;96387.00;5057702;28;20050;-83
2024/01/14 07:35:49;;;;;;;39.10;16.83;;;;;;;-2.16;71.86;96385.72;5048967;28;20056;-82
2024/01/14 07:38:16;;;;;;;41.38;19.98;;;;;;;-2.14;72.26;96381.31;5046617;28;20069;-82
2024/01/14 07:40:44;;;;;;;37.50;16.35;;;;;;;-2.10;71.82;96377.63;5041598;28;20076;-83
2024/01/14 07:43:12;;;;;;;39.60;18.95;;;;;;;-2.09;72.08;96374.13;5044425;28;20084;-82
2024/01/14 07:45:39;;;;;;;40.15;16.52;;;;;;;-2.04;72.47;96370.44;5045504;28;20045;-81
2024/01/14 07:48:07;;;;;;;41.25;16.65;;;;;;;-2.02;71.84;96379.63;5044104;28;20049;-82
2024/01/14 07:50:36;;;;;;;39.70;16.92;;;;;;;-2.03;71.37;96374.59;5041461;28;20060;-83
2024/01/14 07:53:04;;;;;;;39.67;17.02;;;;;;;-2.06;71.13;96367.97;5043168;28;20045;-82
2024/01/14 07:55:32;;;;;;;37.35;16.48;;;;;;;-2.09;71.17;96363.91;5047919;28;20061;-81
2024/01/14 07:57:59;;;;;;;38.80;16.92;;;;;;;-2.07;71.71;96362.06;5052247;28;20053;-84
2024/01/14 08:00:34;;;;;;;48.60;21.08;;;;;;;-2.01;71.68;96349.75;5048769;28;20050;-84
2024/01/14 08:03:22;;;;;;;51.83;23.20;;;;;;;-2.00;71.65;96351.41;5045247;28;20056;-84
2024/01/14 08:05:55;;;;;;;48.42;21.42;;;;;;;-1.96;72.07;96357.94;5041308;28;20129;-84
2024/01/14 08:08:35;;;;;;;38.05;16.33;;;;;;;-1.94;71.81;96351.78;5023151;28;20076;-84
2024/01/14 08:11:12;;;;;;;35.85;17.15;;;;;;;-1.91;71.88;96351.53;5039368;28;20061;-84
2024/01/14 08:13:46;;;;;;;43.00;18.05;;;;;;;-1.96;71.20;96348.50;5020507;28;20069;-84
2024/01/14 08:16:23;;;;;;;39.65;16.50;;;;;;;-2.00;70.94;96349.66;5036155;28;20128;-84
2024/01/14 08:18:56;;;;;;;39.90;16.83;;;;;;;-2.01;71.38;96355.72;5037934;28;20054;-84
2024/01/14 08:21:30;;;;;;;36.42;16.30;;;;;;;-2.02;71.76;96348.94;5038769;28;20086;-84
2024/01/14 08:24:05;;;;;;;38.45;16.15;;;;;;;-1.99;71.87;96358.13;5038127;28;20489;-84
2024/01/14 08:26:45;;;;;;;35.20;14.48;;;;;;;-1.95;72.02;96349.31;5038708;28;20049;-84
2024/01/14 08:29:18;;;;;;;35.13;14.48;;;;;;;-1.92;71.54;96351.66;5039664;28;20054;-84
2024/01/14 08:31:59;;;;;;;31.70;14.95;;;;;;;-1.96;71.46;96345.94;5041803;28;20472;-84
2024/01/14 08:34:32;;;;;;;72.43;32.45;;;;;;;-1.91;71.64;96351.53;5040493;28;20049;-84
2024/01/14 08:37:19;;;;;;;;;;;;;;;-1.84;71.85;96346.78;5043445;28;20057;-87
2024/01/14 08:40:00;;;;;;;35.60;16.13;;;;;;;-1.89;71.04;96351.44;5046911;28;19983;-84
2024/01/14 08:42:35;;;;;;;35.05;16.33;;;;;;;-1.89;70.78;96348.88;5052697;28;20064;-83
2024/01/14 08:45:07;;;;;;;29.50;14.95;;;;;;;-1.92;70.21;96341.44;5051752;28;20032;-86
2024/01/14 08:47:39;;;;;;;38.70;16.15;;;;;;;-1.95;70.96;96341.66;5050094;28;20052;-88
2024/01/14 08:50:12;;;;;;;37.85;16.05;;;;;;;-1.91;71.32;96341.31;5041164;28;20049;-84
2024/01/14 08:52:52;;;;;;;35.28;15.70;;;;;;;-1.84;71.05;96331.47;5019132;28;20046;-83
2024/01/14 08:55:22;;;;;;;34.28;16.17;;;;;;;-1.82;70.99;96337.28;5036260;28;20120;-84
2024/01/14 08:57:54;;;;;;;38.85;15.80;;;;;;;-1.73;71.28;96349.41;5038923;28;20076;-85
2024/01/14 09:00:29;;;;;;;32.95;16.58;;;;;;;-1.64;71.39;96339.41;5041876;28;20053;-86
2024/01/14 09:03:03;;;;;;;35.88;15.70;;;;;;;-1.56;71.71;96329.44;5038304;28;20064;-83
2024/01/14 09:05:36;;;;;;;33.70;15.30;;;;;;;-1.48;71.67;96339.94;5038542;28;20080;-85
2024/01/14 09:08:18;;;;;;;36.88;16.92;;;;;;;-1.44;71.18;96338.78;5039515;28;20054;-83
2024/01/14 09:10:47;;;;;;;37.00;16.25;;;;;;;-1.38;70.63;96334.94;5035544;28;20493;-82
2024/01/14 09:13:18;;;;;;;44.20;17.33;;;;;;;-1.44;69.93;96333.66;5032836;28;20050;-83
2024/01/14 09:15:49;;;;;;;38.10;17.92;;;;;;;-1.52;70.17;96338.53;5032344;28;20046;-83
2024/01/14 09:18:23;;;;;;;37.25;16.33;;;;;;;-1.48;70.42;96342.50;5015301;28;20055;-83
2024/01/14 09:21:02;;;;;;;40.75;17.90;;;;;;;-1.43;70.46;96335.28;5014864;28;20181;-83
2024/01/14 09:23:44;;;;;;;35.25;14.40;;;;;;;-1.39;69.59;96346.13;5014894;28;20078;-83
2024/01/14 09:26:19;;;;;;;31.02;14.13;;;;;;;-1.42;69.74;96342.03;4998282;28;20054;-83
2024/01/14 09:31:53;;;;;;;36.63;15.63;;;;;;;-1.36;69.96;96349.25;5017230;28;20485;-83
2024/01/14 09:34:53;;;;;;;34.67;16.73;;;;;;;-1.26;69.56;96347.63;5000220;28;20046;-83
2024/01/14 09:37:50;;;;;;;32.92;15.82;;;;;;;-1.36;69.36;96339.00;5018228;28;20084;-84
2024/01/14 09:40:24;;;;;;;32.30;15.80;;;;;;;-1.39;69.35;96335.88;5000097;28;20124;-83
2024/01/14 09:42:55;;;;;;;31.15;13.02;;;;;;;-1.48;69.75;96338.19;5020269;28;20056;-82
2024/01/14 09:45:31;;;;;;;28.98;13.75;;;;;;;-1.48;69.92;96324.59;5017717;28;20100;-84
2024/01/14 09:48:18;;;;;;;31.52;13.95;;;;;;;-1.46;69.71;96330.41;5015745;28;20074;-84
2024/01/14 09:50:50;;;;;;;30.08;15.15;;;;;;;-1.50;69.31;96327.25;5015589;28;20061;-83
2024/01/14 09:53:26;;;;;;;32.42;14.77;;;;;;;-1.56;69.95;96314.91;5016385;28;20046;-84
2024/01/14 09:56:07;;;;;;;27.63;15.13;;;;;;;-1.53;69.85;96311.31;5016591;28;20054;-83
2024/01/14 09:58:41;;;;;;;32.05;14.02;;;;;;;-1.50;69.65;96299.09;5016011;28;20050;-83
2024/01/14 10:01:11;;;;;;;32.40;15.60;;;;;;;-1.49;69.11;96295.63;5017156;28;20054;-83
2024/01/14 10:03:43;;;;;;;33.42;14.52;;;;;;;-1.50;69.65;96298.31;5021478;28;20084;-83
2024/01/14 10:06:20;;;;;;;31.48;15.30;;;;;;;-1.50;69.62;96293.19;5014937;28;20065;-84
2024/01/14 10:12:11;;;;;;;37.50;17.50;;;;;;;-1.35;68.93;96278.44;5034694;28;20128;-83
2024/01/14 10:14:49;;;;;;;35.47;16.30;;;;;;;-1.31;69.48;96272.97;5034401;28;20124;-82
2024/01/14 10:20:38;;;;;;;32.95;14.20;;;;;;;-1.09;69.17;96266.22;5035074;28;20049;-82
2024/01/14 10:23:45;;;;;;;23.05;11.38;;;;;;;-1.05;68.24;96255.63;5022118;28;20080;-84
2024/01/14 10:26:20;;;;;;;29.05;14.40;;;;;;;-1.00;69.57;96250.13;5035161;28;20140;-82
2024/01/14 10:53:24;;;;;;;28.70;13.63;;;;;;;-0.08;67.58;96201.81;5057742;28;20053;-81
2024/01/14 10:55:59;;;;;;;28.73;13.70;;;;;;;0.04;68.90;96200.00;5059298;28;20562;-81
2024/01/14 10:58:29;;;;;;;27.20;13.27;;;;;;;0.24;68.76;96195.81;5060276;28;20106;-81
2024/01/14 11:04:08;;;;;;;29.63;13.38;;;;;;;0.60;67.45;96188.53;5041819;28;20141;-82
2024/01/14 11:18:09;;;;;;;28.70;13.45;;;;;;;0.32;67.28;96142.09;5018048;28;20072;-81
2024/01/14 12:56:59;;;;;;;35.83;17.90;;;;;;;2.72;63.20;95961.06;5593374;22;20060;-81
2024/01/14 12:59:30;;;;;;;35.90;18.42;;;;;;;2.71;63.52;95958.63;5057449;28;20394;-81
2024/01/14 13:01:58;;;;;;;35.63;17.08;;;;;;;2.69;64.24;95956.22;5055574;28;20499;-77
2024/01/14 13:04:27;;;;;;;37.15;17.40;;;;;;;2.73;63.80;95954.16;5055660;28;20124;-79
2024/01/14 13:06:55;;;;;;;36.15;18.35;;;;;;;2.78;64.30;95945.03;5055071;28;20427;-78
2024/01/14 13:09:26;;;;;;;33.92;16.83;;;;;;;2.80;63.90;95937.13;5053824;28;20057;-80
2024/01/14 13:11:53;;;;;;;36.67;18.23;;;;;;;2.78;63.12;95934.72;5054782;28;20526;-79
2024/01/14 13:14:22;;;;;;;36.13;18.67;;;;;;;2.77;63.18;95938.25;5055191;28;20137;-78
2024/01/14 13:16:50;;;;;;;37.03;18.65;;;;;;;2.75;62.78;95923.91;5055759;28;20409;-79
2024/01/14 13:19:21;;;;;;;35.83;18.85;;;;;;;2.72;62.68;95917.28;5056204;28;20076;-78
2024/01/14 13:21:49;;;;;;;36.90;19.38;;;;;;;2.72;62.97;95912.16;5055638;28;20081;-80
2024/01/14 13:24:17;;;;;;;37.42;18.50;;;;;;;2.72;62.91;95904.41;5056125;28;20045;-77
2024/01/14 13:26:44;;;;;;;38.28;18.50;;;;;;;2.69;62.65;95902.16;5055711;28;20052;-81
2024/01/14 13:29:12;;;;;;;34.67;18.45;;;;;;;2.74;63.19;95899.94;5055857;28;20583;-78
2024/01/14 13:31:41;;;;;;;38.03;17.48;;;;;;;2.79;62.96;95889.97;5055739;28;20124;-82
2024/01/14 13:34:09;;;;;;;41.30;19.25;;;;;;;2.81;62.40;95887.25;5054926;28;20049;-79
2024/01/14 13:36:37;;;;;;;37.05;19.00;;;;;;;2.76;62.09;95885.13;5055491;28;20041;-82
2024/01/14 13:39:06;;;;;;;34.00;17.95;;;;;;;2.69;62.05;95873.81;5055976;28;20061;-81
2024/01/14 13:41:34;;;;;;;37.40;18.98;;;;;;;2.66;62.51;95874.09;5055256;28;20124;-80
2024/01/14 13:44:01;;;;;;;33.22;18.13;;;;;;;2.67;62.71;95873.16;5055642;28;20131;-79
2024/01/14 13:46:32;;;;;;;38.22;18.38;;;;;;;2.65;62.29;95872.50;5054349;28;20485;-79
2024/01/14 13:49:01;;;;;;;37.58;19.05;;;;;;;2.64;61.77;95863.16;5055263;28;20113;-81
2024/01/14 13:51:29;;;;;;;38.55;20.23;;;;;;;2.62;63.30;95867.63;5048240;28;20049;-80
2024/01/14 13:53:56;;;;;;;40.90;20.35;;;;;;;2.67;63.33;95865.44;5035256;28;20136;-80
2024/01/14 13:56:39;;;;;;;37.53;18.70;;;;;;;2.74;63.62;95863.88;5036343;28;20050;-79